This demonstration page uses our WeatherBlox Daily Observations layout. Learn more.

39.29038, -76.61219

Hourly Observations for May 9, 2019

Temp ( °F °C ) Dew Point ( °F °C ) Humidity (%) Winds ( mph kmh ) Pressure ( in mb ) Visibility ( mi km ) Precip ( " mm )
12:54 am 00:54 undefined 63 17.2 54 12.2 73 73 undefined N/A 30.22 1023 N/A 0 0
1:54 am 01:54 undefined 62 16.7 53 11.7 73 73 undefined N/A 30.23 1024 N/A 0 0
2:54 am 02:54 undefined 62 16.7 53 11.7 73 73 undefined N/A 30.22 1023 N/A 0 0
3:54 am 03:54 undefined 62 16.7 52 11.1 70 70 undefined N/A 30.21 1023 N/A 0 0
4:54 am 04:54 undefined 61 16.1 53 11.7 75 75 undefined N/A 30.2 1023 N/A 0 0
5:54 am 05:54 undefined 61 16.1 53 11.7 75 75 undefined N/A 30.2 1023 N/A 0 0
6:54 am 06:54 undefined 62 16.7 55 12.8 78 78 undefined N/A 30.22 1024 N/A 0 0
7:54 am 07:54 undefined 62 16.7 57 13.9 84 84 undefined N/A 30.23 1024 N/A 0 0
8:54 am 08:54 undefined 62 16.7 58 14.4 86 86 undefined N/A 30.22 1023 N/A 0 0
9:54 am 09:54 undefined 63 17.2 58 14.4 84 84 undefined N/A 30.21 1023 N/A 0 0
10:54 am 10:54 undefined 64 17.8 59 15 84 84 undefined N/A 30.19 1022 N/A 0 0
11:54 am 11:54 undefined 65 18.3 60 15.6 84 84 undefined N/A 30.19 1022 N/A 0 0
12:54 pm 12:54 undefined 65 18.3 60 15.6 84 84 undefined N/A 30.19 1022 N/A 0 0
1:54 pm 13:54 undefined 67 19.4 60 15.6 79 79 undefined N/A 30.19 1022 N/A 0 0
2:54 pm 14:54 undefined 71 21.7 61 16.1 71 71 undefined N/A 30.19 1022 N/A 0 0
3:54 pm 15:54 undefined 74 23.3 63 17.2 69 69 undefined N/A 30.16 1021 N/A 0 0
4:54 pm 16:54 undefined 72 22.2 62 16.7 71 71 undefined N/A 30.11 1020 N/A 0 0
5:54 pm 17:54 undefined 72 22.2 62 16.7 71 71 undefined N/A 30.08 1019 N/A 0 0
6:54 pm 18:54 undefined 73 22.8 60 15.6 64 64 undefined N/A 30.09 1019 N/A 0 0
7:54 pm 19:54 undefined 71 21.7 62 16.7 73 73 undefined N/A 30.1 1019 N/A 0 0
8:54 pm 20:54 undefined 69 20.6 61 16.1 76 76 undefined N/A 30.09 1019 N/A 0 0
9:54 pm 21:54 undefined 68 20 61 16.1 78 78 undefined N/A 30.1 1019 N/A 0 0
10:54 pm 22:54 undefined 69 20.6 61 16.1 76 76 undefined N/A 30.11 1020 N/A 0 0
11:54 pm 23:54 undefined 68 20 60 15.6 76 76 undefined N/A 30.1 1019 N/A 0 0

Powered by AerisWeather